You are listening to:
LKPR Approach - Prague, Czech Republic

LKPR 280530Z 29010KT 9999 SCT022 M00/M01 Q1009 NOSIG

If stream does not start automatically press the play button